CST,Max TemperatureF,Mean TemperatureF,Min TemperatureF,Max Dew PointF,MeanDew PointF,Min DewpointF,Max Humidity, Mean Humidity, Min Humidity, Max Sea Level PressureIn, Mean Sea Level PressureIn, Min Sea Level PressureIn, Max VisibilityMiles, Mean VisibilityMiles, Min VisibilityMiles, Max Wind SpeedMPH, Mean Wind SpeedMPH, Max Gust SpeedMPH,PrecipitationIn, CloudCover, Events, WindDirDegrees
2013-2-1,18,5,-8,13,-5,-13,83,74,65,30.44,30.32,30.10,10,10,9,23,11,29,T,4,Snow,235
2013-2-2,24,18,11,18,12,8,96,85,73,30.17,30.09,30.01,10,7,2,22,9,26,T,8,Snow,273
2013-2-3,24,19,13,21,14,8,92,80,67,30.16,30.03,29.90,10,8,1,29,13,33,T,6,Snow,272
2013-2-4,26,18,9,19,16,10,92,80,68,30.01,29.92,29.77,10,9,6,17,8,22,0.00,4,,22
2013-2-5,36,25,13,30,23,13,92,84,75,30.13,29.94,29.83,10,8,5,23,12,32,T,4,,276
2013-2-6,40,28,15,33,26,14,100,88,75,30.18,30.09,29.96,10,8,3,16,7,20,0.00,2,,157
2013-2-7,37,33,29,37,34,27,100,93,85,30.14,29.96,29.89,10,3,0,21,10,24,0.46,7,Fog-Rain,18
2013-2-8,30,29,27,27,25,24,92,85,78,30.37,30.31,30.13,10,8,2,20,8,24,0.00,8,,45
2013-2-9,33,30,26,29,26,24,92,89,85,30.33,30.17,29.97,9,7,5,21,13,26,0.00,7,,145
2013-2-10,49,40,31,48,36,28,100,85,70,29.94,29.55,29.30,10,5,1,37,19,48,0.39,8,Rain,160
2013-2-11,33,29,25,26,23,20,82,76,69,30.12,29.87,29.53,10,10,10,38,25,48,T,8,,281
2013-2-12,37,31,24,27,23,18,92,78,64,30.14,30.04,29.88,10,10,9,21,9,25,0.00,3,,231
2013-2-13,45,35,24,33,28,23,92,75,58,29.86,29.77,29.66,10,10,6,23,7,24,0.00,2,,250
2013-2-14,41,33,24,32,29,12,96,80,64,30.12,29.88,29.64,10,8,2,26,15,33,T,6,Snow,297
2013-2-15,27,22,16,16,12,6,74,65,55,30.30,30.25,30.14,10,10,10,21,14,26,0.00,2,,317
2013-2-16,25,18,10,16,11,6,92,77,62,30.29,30.21,30.13,10,10,3,16,7,18,T,2,Snow,326
2013-2-17,38,25,11,24,17,9,96,74,52,30.17,30.04,29.77,10,10,10,21,12,29,0.00,1,,137
2013-2-18,49,31,13,36,27,6,82,71,60,29.83,29.64,29.54,10,8,2,36,19,46,0.03,5,Rain-Snow,278
2013-2-19,20,12,3,5,2,-4,83,67,51,30.36,30.06,29.80,10,10,7,36,26,45,T,4,Snow,306
2013-2-20,26,14,1,12,3,-4,79,61,42,30.45,30.38,30.31,10,10,10,14,7,17,0.00,0,,356
2013-2-21,26,19,12,25,18,9,100,84,67,30.38,30.10,29.86,10,6,0,28,15,35,T,5,Fog-Snow,83
2013-2-22,28,25,22,25,22,19,100,89,78,29.97,29.83,29.75,10,4,0,21,12,25,0.05,8,Fog-Snow,57
2013-2-23,27,21,14,19,17,12,92,83,74,30.00,29.96,29.92,10,9,5,17,7,20,0.00,3,,262
2013-2-24,34,20,6,24,15,5,100,82,64,30.12,30.06,29.97,7,4,1,8,4,9,0.00,0,,106
2013-2-25,37,28,19,30,24,18,100,85,70,30.13,30.06,29.92,8,5,2,17,7,22,0.00,4,,83
2013-2-26,35,33,30,30,28,26,100,88,75,29.89,29.70,29.61,9,4,0,30,19,39,0.00,8,Fog-Snow,19
2013-2-27,32,31,29,30,29,28,100,93,85,29.89,29.74,29.68,10,3,1,20,14,23,0.08,8,Snow,340
2013-2-28,34,31,27,28,26,25,92,84,75,30.14,30.05,29.90,10,6,2,20,12,22,T,8,Snow,335